sensor_id;sensor_type;location;lat;lon;timestamp;P1;durP1;ratioP1;P2;durP2;ratioP2
10596;SDS011;5346;48.766;8.674;2023-05-16T00:00:32;21.67;;;14.20;;
10596;SDS011;5346;48.766;8.674;2023-05-16T00:03:00;19.83;;;15.05;;
10596;SDS011;5346;48.766;8.674;2023-05-16T00:05:43;17.60;;;14.20;;
10596;SDS011;5346;48.766;8.674;2023-05-16T00:08:26;17.80;;;14.43;;
10596;SDS011;5346;48.766;8.674;2023-05-16T00:11:00;15.30;;;13.40;;
10596;SDS011;5346;48.766;8.674;2023-05-16T00:13:28;15.13;;;13.52;;
10596;SDS011;5346;48.766;8.674;2023-05-16T00:16:02;22.98;;;17.23;;
10596;SDS011;5346;48.766;8.674;2023-05-16T00:18:30;22.92;;;16.95;;
10596;SDS011;5346;48.766;8.674;2023-05-16T00:21:04;27.63;;;17.77;;
10596;SDS011;5346;48.766;8.674;2023-05-16T00:23:39;22.90;;;17.77;;
10596;SDS011;5346;48.766;8.674;2023-05-16T00:26:14;26.98;;;21.25;;
10596;SDS011;5346;48.766;8.674;2023-05-16T00:28:41;28.77;;;20.57;;
10596;SDS011;5346;48.766;8.674;2023-05-16T00:31:08;32.90;;;22.75;;
10596;SDS011;5346;48.766;8.674;2023-05-16T00:33:45;29.40;;;21.95;;
10596;SDS011;5346;48.766;8.674;2023-05-16T00:36:12;34.90;;;22.90;;
10596;SDS011;5346;48.766;8.674;2023-05-16T00:38:49;34.25;;;22.48;;
10596;SDS011;5346;48.766;8.674;2023-05-16T00:41:22;30.87;;;23.93;;
10596;SDS011;5346;48.766;8.674;2023-05-16T00:43:58;33.93;;;23.17;;
10596;SDS011;5346;48.766;8.674;2023-05-16T00:46:32;31.53;;;22.50;;
10596;SDS011;5346;48.766;8.674;2023-05-16T00:48:59;34.97;;;22.97;;
10596;SDS011;5346;48.766;8.674;2023-05-16T00:51:34;37.50;;;24.47;;
10596;SDS011;5346;48.766;8.674;2023-05-16T00:54:04;37.97;;;23.90;;
10596;SDS011;5346;48.766;8.674;2023-05-16T00:56:40;40.10;;;26.50;;
10596;SDS011;5346;48.766;8.674;2023-05-16T00:59:07;34.30;;;25.30;;
10596;SDS011;5346;48.766;8.674;2023-05-16T01:01:36;41.90;;;26.23;;
10596;SDS011;5346;48.766;8.674;2023-05-16T01:04:12;40.17;;;26.30;;
10596;SDS011;5346;48.766;8.674;2023-05-16T01:06:46;41.27;;;25.43;;
10596;SDS011;5346;48.766;8.674;2023-05-16T01:09:20;40.83;;;26.30;;
10596;SDS011;5346;48.766;8.674;2023-05-16T01:11:55;38.37;;;25.50;;
10596;SDS011;5346;48.766;8.674;2023-05-16T01:14:59;42.90;;;27.80;;
10596;SDS011;5346;48.766;8.674;2023-05-16T01:20:47;40.33;;;28.17;;
10596;SDS011;5346;48.766;8.674;2023-05-16T01:23:27;43.60;;;29.00;;
10596;SDS011;5346;48.766;8.674;2023-05-16T01:26:26;49.90;;;29.77;;
10596;SDS011;5346;48.766;8.674;2023-05-16T01:29:02;44.90;;;28.53;;
10596;SDS011;5346;48.766;8.674;2023-05-16T01:31:37;50.27;;;30.27;;
10596;SDS011;5346;48.766;8.674;2023-05-16T01:34:04;45.67;;;28.90;;
10596;SDS011;5346;48.766;8.674;2023-05-16T01:36:43;48.73;;;31.40;;
10596;SDS011;5346;48.766;8.674;2023-05-16T01:39:40;47.63;;;30.03;;
10596;SDS011;5346;48.766;8.674;2023-05-16T01:42:26;53.90;;;32.27;;
10596;SDS011;5346;48.766;8.674;2023-05-16T01:48:21;54.83;;;32.63;;
10596;SDS011;5346;48.766;8.674;2023-05-16T01:51:02;56.27;;;32.90;;
10596;SDS011;5346;48.766;8.674;2023-05-16T01:53:36;52.27;;;33.83;;
10596;SDS011;5346;48.766;8.674;2023-05-16T01:56:14;61.50;;;36.13;;
10596;SDS011;5346;48.766;8.674;2023-05-16T01:58:44;55.43;;;36.00;;
10596;SDS011;5346;48.766;8.674;2023-05-16T02:01:21;63.27;;;36.27;;
10596;SDS011;5346;48.766;8.674;2023-05-16T02:03:48;63.80;;;37.80;;
10596;SDS011;5346;48.766;8.674;2023-05-16T02:06:23;63.13;;;37.27;;
10596;SDS011;5346;48.766;8.674;2023-05-16T02:09:10;64.63;;;36.90;;
10596;SDS011;5346;48.766;8.674;2023-05-16T02:11:45;70.72;;;38.47;;
10596;SDS011;5346;48.766;8.674;2023-05-16T02:14:14;69.70;;;39.83;;
10596;SDS011;5346;48.766;8.674;2023-05-16T02:16:48;68.33;;;39.67;;
10596;SDS011;5346;48.766;8.674;2023-05-16T02:19:15;74.25;;;41.13;;
10596;SDS011;5346;48.766;8.674;2023-05-16T02:21:52;78.75;;;42.22;;
10596;SDS011;5346;48.766;8.674;2023-05-16T02:24:20;84.37;;;42.33;;
10596;SDS011;5346;48.766;8.674;2023-05-16T02:26:54;76.80;;;41.90;;
10596;SDS011;5346;48.766;8.674;2023-05-16T02:29:27;75.87;;;42.20;;
10596;SDS011;5346;48.766;8.674;2023-05-16T02:32:02;81.40;;;43.93;;
10596;SDS011;5346;48.766;8.674;2023-05-16T02:34:30;80.87;;;43.20;;
10596;SDS011;5346;48.766;8.674;2023-05-16T02:37:05;78.70;;;43.22;;
10596;SDS011;5346;48.766;8.674;2023-05-16T02:39:32;87.13;;;45.10;;
10596;SDS011;5346;48.766;8.674;2023-05-16T02:42:06;100.13;;;47.87;;
10596;SDS011;5346;48.766;8.674;2023-05-16T02:44:33;96.67;;;47.67;;
10596;SDS011;5346;48.766;8.674;2023-05-16T02:47:00;80.17;;;44.97;;
10596;SDS011;5346;48.766;8.674;2023-05-16T02:49:34;89.90;;;45.63;;
10596;SDS011;5346;48.766;8.674;2023-05-16T02:52:01;95.33;;;46.80;;
10596;SDS011;5346;48.766;8.674;2023-05-16T02:54:35;90.33;;;45.03;;
10596;SDS011;5346;48.766;8.674;2023-05-16T02:57:22;96.13;;;47.83;;
10596;SDS011;5346;48.766;8.674;2023-05-16T02:59:56;89.43;;;45.93;;
10596;SDS011;5346;48.766;8.674;2023-05-16T03:02:30;103.20;;;49.10;;
10596;SDS011;5346;48.766;8.674;2023-05-16T03:05:05;99.40;;;48.87;;
10596;SDS011;5346;48.766;8.674;2023-05-16T03:07:52;108.87;;;50.10;;
10596;SDS011;5346;48.766;8.674;2023-05-16T03:10:19;110.53;;;51.17;;
10596;SDS011;5346;48.766;8.674;2023-05-16T03:12:54;116.63;;;53.33;;
10596;SDS011;5346;48.766;8.674;2023-05-16T03:15:21;123.83;;;54.60;;
10596;SDS011;5346;48.766;8.674;2023-05-16T03:17:55;117.03;;;53.43;;
10596;SDS011;5346;48.766;8.674;2023-05-16T03:20:30;128.00;;;53.70;;
10596;SDS011;5346;48.766;8.674;2023-05-16T03:23:04;118.80;;;54.07;;
10596;SDS011;5346;48.766;8.674;2023-05-16T03:25:34;126.95;;;52.53;;
10596;SDS011;5346;48.766;8.674;2023-05-16T03:28:02;122.30;;;51.87;;
10596;SDS011;5346;48.766;8.674;2023-05-16T03:30:41;121.83;;;55.17;;
10596;SDS011;5346;48.766;8.674;2023-05-16T03:33:08;135.53;;;56.13;;
10596;SDS011;5346;48.766;8.674;2023-05-16T03:35:42;113.17;;;52.43;;
10596;SDS011;5346;48.766;8.674;2023-05-16T03:38:09;114.50;;;52.10;;
10596;SDS011;5346;48.766;8.674;2023-05-16T03:40:45;93.43;;;44.37;;
10596;SDS011;5346;48.766;8.674;2023-05-16T03:43:19;94.47;;;43.97;;
10596;SDS011;5346;48.766;8.674;2023-05-16T03:45:54;85.17;;;40.83;;
10596;SDS011;5346;48.766;8.674;2023-05-16T03:48:21;85.17;;;40.37;;
10596;SDS011;5346;48.766;8.674;2023-05-16T03:50:57;80.40;;;38.10;;
10596;SDS011;5346;48.766;8.674;2023-05-16T03:53:24;79.30;;;37.25;;
10596;SDS011;5346;48.766;8.674;2023-05-16T03:55:58;76.47;;;36.83;;
10596;SDS011;5346;48.766;8.674;2023-05-16T03:58:26;69.38;;;34.28;;
10596;SDS011;5346;48.766;8.674;2023-05-16T04:01:00;68.43;;;34.63;;
10596;SDS011;5346;48.766;8.674;2023-05-16T04:03:27;59.47;;;32.37;;
10596;SDS011;5346;48.766;8.674;2023-05-16T04:06:02;66.03;;;33.83;;
10596;SDS011;5346;48.766;8.674;2023-05-16T04:08:36;85.47;;;36.40;;
10596;SDS011;5346;48.766;8.674;2023-05-16T04:11:12;92.33;;;39.87;;
10596;SDS011;5346;48.766;8.674;2023-05-16T04:13:39;100.37;;;37.57;;
10596;SDS011;5346;48.766;8.674;2023-05-16T04:16:13;72.97;;;33.57;;
10596;SDS011;5346;48.766;8.674;2023-05-16T04:18:40;124.20;;;37.30;;
10596;SDS011;5346;48.766;8.674;2023-05-16T04:21:14;108.90;;;37.53;;
10596;SDS011;5346;48.766;8.674;2023-05-16T04:23:48;196.47;;;41.93;;
10596;SDS011;5346;48.766;8.674;2023-05-16T04:26:22;195.97;;;43.63;;
10596;SDS011;5346;48.766;8.674;2023-05-16T04:28:57;302.23;;;50.17;;
10596;SDS011;5346;48.766;8.674;2023-05-16T04:31:31;242.47;;;43.57;;
10596;SDS011;5346;48.766;8.674;2023-05-16T04:34:05;269.73;;;50.07;;
10596;SDS011;5346;48.766;8.674;2023-05-16T04:36:39;348.60;;;51.20;;
10596;SDS011;5346;48.766;8.674;2023-05-16T04:39:07;461.00;;;54.77;;
10596;SDS011;5346;48.766;8.674;2023-05-16T04:41:41;469.23;;;53.30;;
10596;SDS011;5346;48.766;8.674;2023-05-16T04:44:15;431.67;;;47.37;;
10596;SDS011;5346;48.766;8.674;2023-05-16T04:46:49;599.33;;;58.03;;
10596;SDS011;5346;48.766;8.674;2023-05-16T04:49:34;717.03;;;63.60;;
10596;SDS011;5346;48.766;8.674;2023-05-16T04:52:09;1288.83;;;96.33;;
10596;SDS011;5346;48.766;8.674;2023-05-16T04:54:43;1068.00;;;75.07;;
10596;SDS011;5346;48.766;8.674;2023-05-16T04:57:17;929.50;;;72.17;;
10596;SDS011;5346;48.766;8.674;2023-05-16T04:59:51;477.93;;;53.43;;
10596;SDS011;5346;48.766;8.674;2023-05-16T05:02:19;296.73;;;41.13;;
10596;SDS011;5346;48.766;8.674;2023-05-16T05:04:59;878.40;;;61.43;;
10596;SDS011;5346;48.766;8.674;2023-05-16T05:07:40;652.70;;;49.47;;
10596;SDS011;5346;48.766;8.674;2023-05-16T05:10:15;806.70;;;66.65;;
10596;SDS011;5346;48.766;8.674;2023-05-16T05:12:49;538.67;;;49.07;;
10596;SDS011;5346;48.766;8.674;2023-05-16T05:15:17;743.10;;;58.83;;
10596;SDS011;5346;48.766;8.674;2023-05-16T05:17:52;448.47;;;41.20;;
10596;SDS011;5346;48.766;8.674;2023-05-16T05:20:27;686.97;;;48.00;;
10596;SDS011;5346;48.766;8.674;2023-05-16T05:23:00;537.37;;;39.90;;
10596;SDS011;5346;48.766;8.674;2023-05-16T05:25:28;858.30;;;56.70;;
10596;SDS011;5346;48.766;8.674;2023-05-16T05:28:03;687.17;;;46.17;;
10596;SDS011;5346;48.766;8.674;2023-05-16T05:30:38;733.60;;;50.30;;
10596;SDS011;5346;48.766;8.674;2023-05-16T05:33:14;969.43;;;58.03;;
10596;SDS011;5346;48.766;8.674;2023-05-16T05:35:46;1049.55;;;59.25;;
10596;SDS011;5346;48.766;8.674;2023-05-16T05:38:30;952.17;;;54.33;;
10596;SDS011;5346;48.766;8.674;2023-05-16T05:40:57;1235.17;;;67.43;;
10596;SDS011;5346;48.766;8.674;2023-05-16T05:43:34;1122.97;;;65.07;;
10596;SDS011;5346;48.766;8.674;2023-05-16T05:46:01;1003.33;;;56.03;;
10596;SDS011;5346;48.766;8.674;2023-05-16T05:48:35;933.67;;;56.67;;
10596;SDS011;5346;48.766;8.674;2023-05-16T05:51:10;902.97;;;45.80;;
10596;SDS011;5346;48.766;8.674;2023-05-16T05:53:48;858.70;;;45.73;;
10596;SDS011;5346;48.766;8.674;2023-05-16T05:56:16;1087.33;;;58.20;;
10596;SDS011;5346;48.766;8.674;2023-05-16T05:58:51;1019.73;;;52.63;;
10596;SDS011;5346;48.766;8.674;2023-05-16T06:01:25;1326.47;;;61.40;;
10596;SDS011;5346;48.766;8.674;2023-05-16T06:03:52;954.57;;;44.13;;
10596;SDS011;5346;48.766;8.674;2023-05-16T06:06:33;930.17;;;51.23;;
10596;SDS011;5346;48.766;8.674;2023-05-16T06:09:01;632.77;;;36.20;;
10596;SDS011;5346;48.766;8.674;2023-05-16T06:11:35;465.43;;;26.00;;
10596;SDS011;5346;48.766;8.674;2023-05-16T06:14:11;138.83;;;15.43;;
10596;SDS011;5346;48.766;8.674;2023-05-16T06:16:46;17.27;;;8.73;;
10596;SDS011;5346;48.766;8.674;2023-05-16T06:19:22;18.33;;;9.77;;
10596;SDS011;5346;48.766;8.674;2023-05-16T06:21:49;12.77;;;7.63;;
10596;SDS011;5346;48.766;8.674;2023-05-16T06:24:25;15.67;;;9.73;;
10596;SDS011;5346;48.766;8.674;2023-05-16T06:27:01;16.03;;;8.80;;
10596;SDS011;5346;48.766;8.674;2023-05-16T06:29:32;21.10;;;11.63;;
10596;SDS011;5346;48.766;8.674;2023-05-16T06:32:07;8.90;;;5.37;;
10596;SDS011;5346;48.766;8.674;2023-05-16T06:34:38;12.73;;;7.13;;
10596;SDS011;5346;48.766;8.674;2023-05-16T06:37:12;14.60;;;7.20;;
10596;SDS011;5346;48.766;8.674;2023-05-16T06:39:46;14.23;;;6.33;;
10596;SDS011;5346;48.766;8.674;2023-05-16T06:42:19;8.27;;;5.23;;
10596;SDS011;5346;48.766;8.674;2023-05-16T06:44:53;8.87;;;5.27;;
10596;SDS011;5346;48.766;8.674;2023-05-16T06:47:27;7.60;;;4.57;;
10596;SDS011;5346;48.766;8.674;2023-05-16T06:50:02;7.17;;;4.00;;
10596;SDS011;5346;48.766;8.674;2023-05-16T06:52:36;9.73;;;4.93;;
10596;SDS011;5346;48.766;8.674;2023-05-16T06:55:10;10.13;;;4.73;;
10596;SDS011;5346;48.766;8.674;2023-05-16T06:57:44;8.03;;;5.23;;
10596;SDS011;5346;48.766;8.674;2023-05-16T07:00:19;9.53;;;5.20;;
10596;SDS011;5346;48.766;8.674;2023-05-16T07:02:53;13.27;;;6.70;;
10596;SDS011;5346;48.766;8.674;2023-05-16T07:05:27;14.63;;;7.40;;
10596;SDS011;5346;48.766;8.674;2023-05-16T07:08:01;16.33;;;8.53;;
10596;SDS011;5346;48.766;8.674;2023-05-16T07:10:42;16.13;;;7.40;;
10596;SDS011;5346;48.766;8.674;2023-05-16T07:13:16;16.17;;;7.67;;
10596;SDS011;5346;48.766;8.674;2023-05-16T07:15:44;17.00;;;9.03;;
10596;SDS011;5346;48.766;8.674;2023-05-16T07:18:12;17.47;;;8.20;;
10596;SDS011;5346;48.766;8.674;2023-05-16T07:20:46;18.73;;;9.03;;
10596;SDS011;5346;48.766;8.674;2023-05-16T07:23:14;17.60;;;9.40;;
10596;SDS011;5346;48.766;8.674;2023-05-16T07:25:49;21.40;;;10.17;;
10596;SDS011;5346;48.766;8.674;2023-05-16T07:28:24;24.43;;;11.27;;
10596;SDS011;5346;48.766;8.674;2023-05-16T07:30:58;26.33;;;12.60;;
10596;SDS011;5346;48.766;8.674;2023-05-16T07:33:32;31.33;;;13.83;;
10596;SDS011;5346;48.766;8.674;2023-05-16T07:36:06;30.93;;;16.70;;
10596;SDS011;5346;48.766;8.674;2023-05-16T07:38:43;36.97;;;16.27;;
10596;SDS011;5346;48.766;8.674;2023-05-16T07:41:17;40.70;;;15.53;;
10596;SDS011;5346;48.766;8.674;2023-05-16T07:43:51;50.13;;;19.80;;
10596;SDS011;5346;48.766;8.674;2023-05-16T07:46:19;55.90;;;19.27;;
10596;SDS011;5346;48.766;8.674;2023-05-16T07:48:53;58.80;;;19.10;;
10596;SDS011;5346;48.766;8.674;2023-05-16T07:51:27;68.23;;;17.97;;
10596;SDS011;5346;48.766;8.674;2023-05-16T07:54:01;167.53;;;21.77;;
10596;SDS011;5346;48.766;8.674;2023-05-16T07:56:28;285.50;;;21.60;;
10596;SDS011;5346;48.766;8.674;2023-05-16T07:59:02;311.53;;;22.17;;
10596;SDS011;5346;48.766;8.674;2023-05-16T08:01:31;496.63;;;29.80;;
10596;SDS011;5346;48.766;8.674;2023-05-16T08:04:05;847.00;;;43.60;;
10596;SDS011;5346;48.766;8.674;2023-05-16T08:06:32;922.83;;;43.73;;
10596;SDS011;5346;48.766;8.674;2023-05-16T08:09:12;891.37;;;43.57;;
10596;SDS011;5346;48.766;8.674;2023-05-16T08:11:40;831.63;;;44.17;;
10596;SDS011;5346;48.766;8.674;2023-05-16T08:14:17;905.80;;;48.23;;
10596;SDS011;5346;48.766;8.674;2023-05-16T08:16:51;805.40;;;44.17;;
10596;SDS011;5346;48.766;8.674;2023-05-16T08:19:18;643.97;;;43.60;;
10596;SDS011;5346;48.766;8.674;2023-05-16T08:21:52;705.33;;;44.57;;
10596;SDS011;5346;48.766;8.674;2023-05-16T08:24:22;946.73;;;51.87;;
10596;SDS011;5346;48.766;8.674;2023-05-16T08:26:56;659.97;;;41.27;;
10596;SDS011;5346;48.766;8.674;2023-05-16T08:29:25;403.03;;;38.47;;
10596;SDS011;5346;48.766;8.674;2023-05-16T08:31:59;466.03;;;36.27;;
10596;SDS011;5346;48.766;8.674;2023-05-16T08:34:29;892.13;;;51.40;;
10596;SDS011;5346;48.766;8.674;2023-05-16T08:37:04;849.13;;;48.87;;
10596;SDS011;5346;48.766;8.674;2023-05-16T08:39:32;829.33;;;49.27;;
10596;SDS011;5346;48.766;8.674;2023-05-16T08:42:06;739.23;;;50.90;;
10596;SDS011;5346;48.766;8.674;2023-05-16T08:44:34;557.43;;;40.27;;
10596;SDS011;5346;48.766;8.674;2023-05-16T08:47:18;811.53;;;51.73;;
10596;SDS011;5346;48.766;8.674;2023-05-16T08:49:50;538.37;;;43.10;;
10596;SDS011;5346;48.766;8.674;2023-05-16T08:52:29;289.03;;;41.30;;
10596;SDS011;5346;48.766;8.674;2023-05-16T08:55:00;144.20;;;31.00;;
10596;SDS011;5346;48.766;8.674;2023-05-16T08:57:41;86.37;;;27.67;;
10596;SDS011;5346;48.766;8.674;2023-05-16T09:00:10;126.53;;;26.73;;
10596;SDS011;5346;48.766;8.674;2023-05-16T09:02:46;197.77;;;30.30;;
10596;SDS011;5346;48.766;8.674;2023-05-16T09:05:20;162.77;;;27.07;;
10596;SDS011;5346;48.766;8.674;2023-05-16T09:07:56;87.63;;;24.57;;
10596;SDS011;5346;48.766;8.674;2023-05-16T09:10:30;72.73;;;24.07;;
10596;SDS011;5346;48.766;8.674;2023-05-16T09:13:04;150.23;;;25.53;;
10596;SDS011;5346;48.766;8.674;2023-05-16T09:15:32;413.20;;;33.30;;
10596;SDS011;5346;48.766;8.674;2023-05-16T09:18:10;187.63;;;27.40;;
10596;SDS011;5346;48.766;8.674;2023-05-16T09:20:43;205.30;;;25.83;;
10596;SDS011;5346;48.766;8.674;2023-05-16T09:23:24;245.90;;;27.33;;
10596;SDS011;5346;48.766;8.674;2023-05-16T09:25:52;433.17;;;31.97;;
10596;SDS011;5346;48.766;8.674;2023-05-16T09:28:20;707.30;;;42.20;;
10596;SDS011;5346;48.766;8.674;2023-05-16T09:30:54;577.93;;;36.90;;
10596;SDS011;5346;48.766;8.674;2023-05-16T09:33:31;711.63;;;40.47;;
10596;SDS011;5346;48.766;8.674;2023-05-16T09:36:05;787.63;;;42.00;;
10596;SDS011;5346;48.766;8.674;2023-05-16T09:38:33;777.57;;;40.37;;
10596;SDS011;5346;48.766;8.674;2023-05-16T09:41:10;569.63;;;31.30;;
10596;SDS011;5346;48.766;8.674;2023-05-16T09:43:39;473.17;;;30.37;;
10596;SDS011;5346;48.766;8.674;2023-05-16T09:46:14;133.87;;;19.13;;
10596;SDS011;5346;48.766;8.674;2023-05-16T09:48:49;262.17;;;23.47;;
10596;SDS011;5346;48.766;8.674;2023-05-16T09:51:24;60.17;;;17.47;;
10596;SDS011;5346;48.766;8.674;2023-05-16T09:53:52;96.03;;;18.87;;
10596;SDS011;5346;48.766;8.674;2023-05-16T09:56:27;24.27;;;16.43;;
10596;SDS011;5346;48.766;8.674;2023-05-16T09:59:03;24.33;;;17.47;;
10596;SDS011;5346;48.766;8.674;2023-05-16T10:01:46;27.33;;;17.40;;
10596;SDS011;5346;48.766;8.674;2023-05-16T10:04:22;23.90;;;16.97;;
10596;SDS011;5346;48.766;8.674;2023-05-16T10:07:04;49.57;;;17.97;;
10596;SDS011;5346;48.766;8.674;2023-05-16T10:09:44;533.77;;;32.67;;
10596;SDS011;5346;48.766;8.674;2023-05-16T10:12:29;517.10;;;29.93;;
10596;SDS011;5346;48.766;8.674;2023-05-16T10:14:59;464.50;;;24.63;;
10596;SDS011;5346;48.766;8.674;2023-05-16T10:17:35;573.17;;;29.30;;
10596;SDS011;5346;48.766;8.674;2023-05-16T10:20:10;48.57;;;8.07;;
10596;SDS011;5346;48.766;8.674;2023-05-16T10:22:46;10.63;;;7.57;;
10596;SDS011;5346;48.766;8.674;2023-05-16T10:25:31;11.90;;;7.93;;
10596;SDS011;5346;48.766;8.674;2023-05-16T10:28:07;13.93;;;7.83;;
10596;SDS011;5346;48.766;8.674;2023-05-16T10:30:42;10.10;;;7.17;;
10596;SDS011;5346;48.766;8.674;2023-05-16T10:33:17;10.30;;;7.13;;
10596;SDS011;5346;48.766;8.674;2023-05-16T10:35:55;10.63;;;7.57;;
10596;SDS011;5346;48.766;8.674;2023-05-16T10:38:24;11.33;;;6.77;;
10596;SDS011;5346;48.766;8.674;2023-05-16T10:41:00;8.90;;;5.97;;
10596;SDS011;5346;48.766;8.674;2023-05-16T10:43:29;8.10;;;5.63;;
10596;SDS011;5346;48.766;8.674;2023-05-16T10:46:07;7.43;;;6.20;;
10596;SDS011;5346;48.766;8.674;2023-05-16T10:48:42;7.17;;;6.00;;
10596;SDS011;5346;48.766;8.674;2023-05-16T10:53:58;9.17;;;6.03;;
10596;SDS011;5346;48.766;8.674;2023-05-16T10:56:41;10.83;;;6.10;;
10596;SDS011;5346;48.766;8.674;2023-05-16T10:59:22;7.87;;;5.50;;
10596;SDS011;5346;48.766;8.674;2023-05-16T11:01:54;6.50;;;5.80;;
10596;SDS011;5346;48.766;8.674;2023-05-16T11:04:47;8.17;;;6.30;;
10596;SDS011;5346;48.766;8.674;2023-05-16T11:07:33;7.73;;;6.07;;
10596;SDS011;5346;48.766;8.674;2023-05-16T11:10:15;6.88;;;6.18;;
10596;SDS011;5346;48.766;8.674;2023-05-16T11:12:50;8.10;;;6.23;;
10596;SDS011;5346;48.766;8.674;2023-05-16T11:15:26;7.33;;;6.10;;
10596;SDS011;5346;48.766;8.674;2023-05-16T11:18:07;7.07;;;5.70;;
10596;SDS011;5346;48.766;8.674;2023-05-16T11:20:48;6.43;;;5.78;;
10596;SDS011;5346;48.766;8.674;2023-05-16T11:23:24;6.33;;;5.37;;
10596;SDS011;5346;48.766;8.674;2023-05-16T11:25:59;7.40;;;6.00;;
10596;SDS011;5346;48.766;8.674;2023-05-16T11:28:35;9.60;;;5.43;;
10596;SDS011;5346;48.766;8.674;2023-05-16T11:31:09;6.53;;;4.90;;
10596;SDS011;5346;48.766;8.674;2023-05-16T11:33:44;8.00;;;5.43;;
10596;SDS011;5346;48.766;8.674;2023-05-16T11:36:19;6.77;;;5.60;;
10596;SDS011;5346;48.766;8.674;2023-05-16T11:38:51;9.40;;;5.40;;
10596;SDS011;5346;48.766;8.674;2023-05-16T11:41:25;6.70;;;5.80;;
10596;SDS011;5346;48.766;8.674;2023-05-16T11:43:53;8.77;;;5.97;;
10596;SDS011;5346;48.766;8.674;2023-05-16T11:46:26;7.67;;;6.53;;
10596;SDS011;5346;48.766;8.674;2023-05-16T11:48:54;6.93;;;5.50;;
10596;SDS011;5346;48.766;8.674;2023-05-16T11:51:29;11.33;;;5.00;;
10596;SDS011;5346;48.766;8.674;2023-05-16T11:54:03;8.93;;;4.83;;
10596;SDS011;5346;48.766;8.674;2023-05-16T11:56:31;13.13;;;5.27;;
10596;SDS011;5346;48.766;8.674;2023-05-16T11:59:09;5.03;;;4.63;;
10596;SDS011;5346;48.766;8.674;2023-05-16T12:01:44;8.40;;;4.67;;
10596;SDS011;5346;48.766;8.674;2023-05-16T12:04:20;5.40;;;4.90;;
10596;SDS011;5346;48.766;8.674;2023-05-16T12:06:59;6.70;;;5.10;;
10596;SDS011;5346;48.766;8.674;2023-05-16T12:09:52;9.60;;;5.07;;
10596;SDS011;5346;48.766;8.674;2023-05-16T12:12:19;5.40;;;4.90;;
10596;SDS011;5346;48.766;8.674;2023-05-16T12:14:56;7.37;;;4.77;;
10596;SDS011;5346;48.766;8.674;2023-05-16T12:17:31;6.43;;;5.27;;
10596;SDS011;5346;48.766;8.674;2023-05-16T12:20:04;6.40;;;5.30;;
10596;SDS011;5346;48.766;8.674;2023-05-16T12:22:40;6.03;;;4.63;;
10596;SDS011;5346;48.766;8.674;2023-05-16T12:28:14;5.77;;;5.10;;
10596;SDS011;5346;48.766;8.674;2023-05-16T12:30:42;11.87;;;4.70;;
10596;SDS011;5346;48.766;8.674;2023-05-16T12:33:18;4.50;;;4.10;;
10596;SDS011;5346;48.766;8.674;2023-05-16T12:35:48;11.27;;;5.50;;
10596;SDS011;5346;48.766;8.674;2023-05-16T12:38:24;7.20;;;5.10;;
10596;SDS011;5346;48.766;8.674;2023-05-16T12:41:05;6.13;;;5.43;;
10596;SDS011;5346;48.766;8.674;2023-05-16T12:43:39;7.37;;;4.90;;
10596;SDS011;5346;48.766;8.674;2023-05-16T12:46:18;10.00;;;4.50;;
10596;SDS011;5346;48.766;8.674;2023-05-16T12:48:48;8.73;;;4.83;;
10596;SDS011;5346;48.766;8.674;2023-05-16T12:51:39;6.10;;;4.83;;
10596;SDS011;5346;48.766;8.674;2023-05-16T12:54:25;5.80;;;4.53;;
10596;SDS011;5346;48.766;8.674;2023-05-16T12:57:03;6.93;;;5.20;;
10596;SDS011;5346;48.766;8.674;2023-05-16T12:59:45;7.37;;;4.83;;
10596;SDS011;5346;48.766;8.674;2023-05-16T13:02:13;9.40;;;5.37;;
10596;SDS011;5346;48.766;8.674;2023-05-16T13:04:47;5.13;;;4.63;;
10596;SDS011;5346;48.766;8.674;2023-05-16T13:07:22;8.03;;;5.30;;
10596;SDS011;5346;48.766;8.674;2023-05-16T13:10:16;7.47;;;5.63;;
10596;SDS011;5346;48.766;8.674;2023-05-16T13:12:53;8.70;;;5.50;;
10596;SDS011;5346;48.766;8.674;2023-05-16T13:15:30;7.17;;;5.47;;
10596;SDS011;5346;48.766;8.674;2023-05-16T13:18:06;7.43;;;5.20;;
10596;SDS011;5346;48.766;8.674;2023-05-16T13:20:35;9.00;;;5.87;;
10596;SDS011;5346;48.766;8.674;2023-05-16T13:23:19;5.93;;;5.03;;
10596;SDS011;5346;48.766;8.674;2023-05-16T13:25:48;7.20;;;5.73;;
10596;SDS011;5346;48.766;8.674;2023-05-16T13:28:25;10.67;;;4.57;;
10596;SDS011;5346;48.766;8.674;2023-05-16T13:31:00;6.33;;;5.17;;
10596;SDS011;5346;48.766;8.674;2023-05-16T13:33:35;6.50;;;5.30;;
10596;SDS011;5346;48.766;8.674;2023-05-16T13:36:09;8.13;;;4.80;;
10596;SDS011;5346;48.766;8.674;2023-05-16T13:38:37;8.73;;;4.70;;
10596;SDS011;5346;48.766;8.674;2023-05-16T13:41:12;5.07;;;4.53;;
10596;SDS011;5346;48.766;8.674;2023-05-16T13:43:43;6.50;;;4.60;;
10596;SDS011;5346;48.766;8.674;2023-05-16T13:46:20;5.37;;;4.60;;
10596;SDS011;5346;48.766;8.674;2023-05-16T13:48:48;7.27;;;3.90;;
10596;SDS011;5346;48.766;8.674;2023-05-16T13:51:24;7.03;;;3.93;;
10596;SDS011;5346;48.766;8.674;2023-05-16T13:54:01;5.78;;;3.58;;
10596;SDS011;5346;48.766;8.674;2023-05-16T13:56:30;4.82;;;3.45;;
10596;SDS011;5346;48.766;8.674;2023-05-16T13:59:09;4.10;;;3.47;;
10596;SDS011;5346;48.766;8.674;2023-05-16T14:01:46;4.33;;;3.23;;
10596;SDS011;5346;48.766;8.674;2023-05-16T14:04:22;5.77;;;3.60;;
10596;SDS011;5346;48.766;8.674;2023-05-16T14:06:50;8.63;;;3.40;;
10596;SDS011;5346;48.766;8.674;2023-05-16T14:09:27;4.87;;;3.30;;
10596;SDS011;5346;48.766;8.674;2023-05-16T14:12:18;7.30;;;4.00;;
10596;SDS011;5346;48.766;8.674;2023-05-16T14:14:53;4.43;;;3.63;;
10596;SDS011;5346;48.766;8.674;2023-05-16T14:17:24;7.17;;;3.63;;
10596;SDS011;5346;48.766;8.674;2023-05-16T14:19:58;9.10;;;4.40;;
10596;SDS011;5346;48.766;8.674;2023-05-16T14:22:28;4.93;;;4.00;;
10596;SDS011;5346;48.766;8.674;2023-05-16T14:25:05;8.83;;;4.50;;
10596;SDS011;5346;48.766;8.674;2023-05-16T14:27:47;9.63;;;4.27;;
10596;SDS011;5346;48.766;8.674;2023-05-16T14:30:27;9.80;;;5.40;;
10596;SDS011;5346;48.766;8.674;2023-05-16T14:32:56;5.93;;;4.93;;
10596;SDS011;5346;48.766;8.674;2023-05-16T14:35:31;7.07;;;4.33;;
10596;SDS011;5346;48.766;8.674;2023-05-16T14:37:59;5.37;;;4.83;;
10596;SDS011;5346;48.766;8.674;2023-05-16T14:40:34;10.40;;;5.53;;
10596;SDS011;5346;48.766;8.674;2023-05-16T14:43:02;7.53;;;5.27;;
10596;SDS011;5346;48.766;8.674;2023-05-16T14:45:37;9.87;;;5.03;;
10596;SDS011;5346;48.766;8.674;2023-05-16T14:48:11;11.93;;;5.03;;
10596;SDS011;5346;48.766;8.674;2023-05-16T14:50:45;8.17;;;5.33;;
10596;SDS011;5346;48.766;8.674;2023-05-16T14:53:13;10.07;;;5.63;;
10596;SDS011;5346;48.766;8.674;2023-05-16T14:55:47;11.80;;;4.70;;
10596;SDS011;5346;48.766;8.674;2023-05-16T14:58:15;6.13;;;4.63;;
10596;SDS011;5346;48.766;8.674;2023-05-16T15:00:49;11.57;;;4.60;;
10596;SDS011;5346;48.766;8.674;2023-05-16T15:03:17;9.87;;;4.47;;
10596;SDS011;5346;48.766;8.674;2023-05-16T15:05:51;9.97;;;5.10;;
10596;SDS011;5346;48.766;8.674;2023-05-16T15:08:33;12.93;;;4.83;;
10596;SDS011;5346;48.766;8.674;2023-05-16T15:11:07;7.63;;;4.33;;
10596;SDS011;5346;48.766;8.674;2023-05-16T15:13:41;8.73;;;4.43;;
10596;SDS011;5346;48.766;8.674;2023-05-16T15:16:15;7.97;;;4.30;;
10596;SDS011;5346;48.766;8.674;2023-05-16T15:18:50;9.97;;;4.23;;
10596;SDS011;5346;48.766;8.674;2023-05-16T15:21:18;7.47;;;4.10;;
10596;SDS011;5346;48.766;8.674;2023-05-16T15:23:52;8.87;;;4.30;;
10596;SDS011;5346;48.766;8.674;2023-05-16T15:26:30;9.57;;;4.20;;
10596;SDS011;5346;48.766;8.674;2023-05-16T15:29:11;10.63;;;4.30;;
10596;SDS011;5346;48.766;8.674;2023-05-16T15:31:39;11.30;;;4.30;;